06:02
Airports
History
Links
Donate
Help keep this website running!
PayPal
Bitcoin
Information on this page is community maintained and may be outdated or inaccurate and is intended for reference only or PC simulator navigating!
Always use approved charts for navigating.
SNXX
MAXARANGUAPE
MAXARANGUAPE (SNXX)
Santa Luzia, Rio Grande do Norte, Brazil (59584)
(U)
Lat/Lng:5° 23' 2.9" S / 35° 31' 42.19" W
-5.384138 / -35.528385
Elevation:302'ft 92mMSL
ID / ICAO:SNXX
Runways:1
Longest:(16-34) 2,188.7m 7,181ft Asphalt
Distance To
Airport ID:
Nearby WeatherUpdated 12-11-16 06:00 GMT
Nearby weather at SBNT, Augusto Severo located 41.2 nautical miles from SNXX
Altimeter: 29.85
Visibility: 6.2 statute miles
Wind: 5 knots (090°)
Temp: 26°c 79°f
Humidity: 83.6%

METAR: SBNT 110600Z 09005KT 9999 FEW023 26/23 Q1011

(Powered by phpweather)
Runway 16 / 34
Dimensions:2188.7 x 29.9m 7181' x 98'ft
Surface:Asphalt
Runway 16 [A]Runway 34 [B]
Heading:138°TH 318°TH
Lat:
Lng:
5° 22' 36.3"S
35° 32' 5.9"W
5° 23' 29.49"S
35° 31' 18.47"W
Google Map
Nearby Airports
4 Fazenda Bebida Velha 6.1 NM
SNZO N 354°
(U) Ceara - Mirim 20.6 NM
SNOG SSE 157°
(U) CEARA MIRIM 20.7 NM
SB38 SSE 157°
(C) Jardim De Angicos 34.3 NM
SNJA WSW 239°
(C) Augusto Severo 41.2 NM
SBNT (WX) SSE 151°
4 Severino Lopes 48.2 NM
SJBX SSE 155°
(U) Senador Antonio Farias 78.1 NM
SIQA SSE 154°
VFR Chart
Flight Planning at SkyVector.com